sensor_id;sensor_type;location;lat;lon;timestamp;P1;durP1;ratioP1;P2;durP2;ratioP2
19842;SDS011;10082;51.038;6.992;2023-04-02T00:07:59;14.55;;;12.90;;
19842;SDS011;10082;51.038;6.992;2023-04-02T00:10:29;16.10;;;13.45;;
19842;SDS011;10082;51.038;6.992;2023-04-02T00:13:02;11.57;;;10.23;;
19842;SDS011;10082;51.038;6.992;2023-04-02T00:15:32;10.93;;;9.82;;
19842;SDS011;10082;51.038;6.992;2023-04-02T00:18:00;5.85;;;5.35;;
19842;SDS011;10082;51.038;6.992;2023-04-02T00:20:29;4.93;;;4.53;;
19842;SDS011;10082;51.038;6.992;2023-04-02T00:23:03;2.80;;;2.60;;
19842;SDS011;10082;51.038;6.992;2023-04-02T00:25:33;2.10;;;2.00;;
19842;SDS011;10082;51.038;6.992;2023-04-02T00:28:09;2.00;;;1.90;;
19842;SDS011;10082;51.038;6.992;2023-04-02T00:30:44;2.10;;;2.00;;
19842;SDS011;10082;51.038;6.992;2023-04-02T00:33:14;2.10;;;2.00;;
19842;SDS011;10082;51.038;6.992;2023-04-02T00:35:45;1.80;;;1.70;;
19842;SDS011;10082;51.038;6.992;2023-04-02T00:38:17;1.85;;;1.75;;
19842;SDS011;10082;51.038;6.992;2023-04-02T00:43:35;2.05;;;1.95;;
19842;SDS011;10082;51.038;6.992;2023-04-02T00:46:09;2.20;;;2.00;;
19842;SDS011;10082;51.038;6.992;2023-04-02T00:48:42;2.35;;;2.25;;
19842;SDS011;10082;51.038;6.992;2023-04-02T00:51:18;2.42;;;2.25;;
19842;SDS011;10082;51.038;6.992;2023-04-02T00:53:51;2.78;;;2.58;;
19842;SDS011;10082;51.038;6.992;2023-04-02T00:56:21;3.42;;;3.13;;
19842;SDS011;10082;51.038;6.992;2023-04-02T00:58:55;3.30;;;3.10;;
19842;SDS011;10082;51.038;6.992;2023-04-02T01:01:24;2.90;;;2.70;;
19842;SDS011;10082;51.038;6.992;2023-04-02T01:03:54;2.83;;;2.63;;
19842;SDS011;10082;51.038;6.992;2023-04-02T01:06:27;3.08;;;2.88;;
19842;SDS011;10082;51.038;6.992;2023-04-02T01:09:02;2.97;;;2.78;;
19842;SDS011;10082;51.038;6.992;2023-04-02T01:11:45;3.50;;;3.22;;
19842;SDS011;10082;51.038;6.992;2023-04-02T01:14:28;3.25;;;3.05;;
19842;SDS011;10082;51.038;6.992;2023-04-02T01:17:08;3.08;;;2.88;;
19842;SDS011;10082;51.038;6.992;2023-04-02T01:19:55;2.15;;;2.05;;
19842;SDS011;10082;51.038;6.992;2023-04-02T01:25:15;2.35;;;2.25;;
19842;SDS011;10082;51.038;6.992;2023-04-02T01:27:49;2.30;;;2.20;;
19842;SDS011;10082;51.038;6.992;2023-04-02T01:30:26;2.40;;;2.20;;
19842;SDS011;10082;51.038;6.992;2023-04-02T01:32:54;2.30;;;2.20;;
19842;SDS011;10082;51.038;6.992;2023-04-02T01:35:23;2.40;;;2.30;;
19842;SDS011;10082;51.038;6.992;2023-04-02T01:37:55;2.35;;;2.25;;
19842;SDS011;10082;51.038;6.992;2023-04-02T01:40:33;2.30;;;2.20;;
19842;SDS011;10082;51.038;6.992;2023-04-02T01:43:09;2.40;;;2.15;;
19842;SDS011;10082;51.038;6.992;2023-04-02T01:45:46;2.00;;;1.90;;
19842;SDS011;10082;51.038;6.992;2023-04-02T01:48:15;2.08;;;1.98;;
19842;SDS011;10082;51.038;6.992;2023-04-02T01:50:45;2.20;;;2.00;;
19842;SDS011;10082;51.038;6.992;2023-04-02T01:53:15;2.15;;;2.05;;
19842;SDS011;10082;51.038;6.992;2023-04-02T01:55:46;2.08;;;1.98;;
19842;SDS011;10082;51.038;6.992;2023-04-02T01:58:17;2.10;;;2.00;;
19842;SDS011;10082;51.038;6.992;2023-04-02T02:00:51;1.95;;;1.85;;
19842;SDS011;10082;51.038;6.992;2023-04-02T02:03:23;2.15;;;2.05;;
19842;SDS011;10082;51.038;6.992;2023-04-02T02:05:51;1.85;;;1.75;;
19842;SDS011;10082;51.038;6.992;2023-04-02T02:08:24;2.08;;;1.98;;
19842;SDS011;10082;51.038;6.992;2023-04-02T02:11:03;1.90;;;1.80;;
19842;SDS011;10082;51.038;6.992;2023-04-02T02:13:31;1.83;;;1.73;;
19842;SDS011;10082;51.038;6.992;2023-04-02T02:16:02;2.10;;;1.97;;
19842;SDS011;10082;51.038;6.992;2023-04-02T02:18:32;1.73;;;1.60;;
19842;SDS011;10082;51.038;6.992;2023-04-02T02:21:00;2.35;;;2.10;;
19842;SDS011;10082;51.038;6.992;2023-04-02T02:23:37;2.17;;;2.08;;
19842;SDS011;10082;51.038;6.992;2023-04-02T02:26:05;1.98;;;1.88;;
19842;SDS011;10082;51.038;6.992;2023-04-02T02:28:34;2.45;;;2.25;;
19842;SDS011;10082;51.038;6.992;2023-04-02T02:31:08;2.10;;;2.00;;
19842;SDS011;10082;51.038;6.992;2023-04-02T02:33:44;2.22;;;2.13;;
19842;SDS011;10082;51.038;6.992;2023-04-02T02:36:20;2.38;;;2.28;;
19842;SDS011;10082;51.038;6.992;2023-04-02T02:38:52;2.13;;;2.03;;
19842;SDS011;10082;51.038;6.992;2023-04-02T02:41:34;2.27;;;2.17;;
19842;SDS011;10082;51.038;6.992;2023-04-02T02:44:09;2.30;;;2.20;;
19842;SDS011;10082;51.038;6.992;2023-04-02T02:46:45;2.17;;;2.08;;
19842;SDS011;10082;51.038;6.992;2023-04-02T02:49:18;2.53;;;2.33;;
19842;SDS011;10082;51.038;6.992;2023-04-02T02:51:56;2.60;;;2.40;;
19842;SDS011;10082;51.038;6.992;2023-04-02T02:54:37;2.40;;;2.20;;
19842;SDS011;10082;51.038;6.992;2023-04-02T02:57:10;2.40;;;2.30;;
19842;SDS011;10082;51.038;6.992;2023-04-02T02:59:43;2.60;;;2.40;;
19842;SDS011;10082;51.038;6.992;2023-04-02T03:02:13;2.80;;;2.60;;
19842;SDS011;10082;51.038;6.992;2023-04-02T03:04:45;2.67;;;2.47;;
19842;SDS011;10082;51.038;6.992;2023-04-02T03:07:15;2.70;;;2.50;;
19842;SDS011;10082;51.038;6.992;2023-04-02T03:09:45;2.65;;;2.45;;
19842;SDS011;10082;51.038;6.992;2023-04-02T03:12:26;2.83;;;2.63;;
19842;SDS011;10082;51.038;6.992;2023-04-02T03:15:01;3.10;;;2.90;;
19842;SDS011;10082;51.038;6.992;2023-04-02T03:17:36;2.95;;;2.75;;
19842;SDS011;10082;51.038;6.992;2023-04-02T03:20:12;3.20;;;3.00;;
19842;SDS011;10082;51.038;6.992;2023-04-02T03:22:45;3.03;;;2.83;;
19842;SDS011;10082;51.038;6.992;2023-04-02T03:25:25;3.07;;;2.87;;
19842;SDS011;10082;51.038;6.992;2023-04-02T03:28:00;3.37;;;3.17;;
19842;SDS011;10082;51.038;6.992;2023-04-02T03:30:34;3.33;;;3.13;;
19842;SDS011;10082;51.038;6.992;2023-04-02T03:35:56;3.30;;;3.10;;
19842;SDS011;10082;51.038;6.992;2023-04-02T03:38:33;3.50;;;3.30;;
19842;SDS011;10082;51.038;6.992;2023-04-02T03:41:09;4.30;;;4.00;;
19842;SDS011;10082;51.038;6.992;2023-04-02T03:43:44;4.40;;;4.10;;
19842;SDS011;10082;51.038;6.992;2023-04-02T03:46:18;4.33;;;4.03;;
19842;SDS011;10082;51.038;6.992;2023-04-02T03:48:52;5.30;;;4.90;;
19842;SDS011;10082;51.038;6.992;2023-04-02T03:51:26;4.20;;;3.90;;
19842;SDS011;10082;51.038;6.992;2023-04-02T03:54:00;4.70;;;4.40;;
19842;SDS011;10082;51.038;6.992;2023-04-02T03:56:29;4.83;;;4.53;;
19842;SDS011;10082;51.038;6.992;2023-04-02T03:59:06;4.63;;;4.30;;
19842;SDS011;10082;51.038;6.992;2023-04-02T04:01:44;4.53;;;4.23;;
19842;SDS011;10082;51.038;6.992;2023-04-02T04:04:18;4.70;;;4.38;;
19842;SDS011;10082;51.038;6.992;2023-04-02T04:06:50;4.17;;;3.87;;
19842;SDS011;10082;51.038;6.992;2023-04-02T04:09:19;4.03;;;3.73;;
19842;SDS011;10082;51.038;6.992;2023-04-02T04:11:54;4.20;;;3.90;;
19842;SDS011;10082;51.038;6.992;2023-04-02T04:14:33;4.35;;;4.05;;
19842;SDS011;10082;51.038;6.992;2023-04-02T04:17:03;3.40;;;3.20;;
19842;SDS011;10082;51.038;6.992;2023-04-02T04:19:42;3.65;;;3.45;;
19842;SDS011;10082;51.038;6.992;2023-04-02T04:22:17;3.63;;;3.43;;
19842;SDS011;10082;51.038;6.992;2023-04-02T04:24:54;3.73;;;3.53;;
19842;SDS011;10082;51.038;6.992;2023-04-02T04:27:23;3.57;;;3.37;;
19842;SDS011;10082;51.038;6.992;2023-04-02T04:29:59;3.80;;;3.53;;
19842;SDS011;10082;51.038;6.992;2023-04-02T04:32:44;3.87;;;3.57;;
19842;SDS011;10082;51.038;6.992;2023-04-02T04:35:20;3.90;;;3.63;;
19842;SDS011;10082;51.038;6.992;2023-04-02T04:37:59;3.90;;;3.60;;
19842;SDS011;10082;51.038;6.992;2023-04-02T04:40:31;3.77;;;3.53;;
19842;SDS011;10082;51.038;6.992;2023-04-02T04:43:03;3.70;;;3.50;;
19842;SDS011;10082;51.038;6.992;2023-04-02T04:45:39;3.80;;;3.60;;
19842;SDS011;10082;51.038;6.992;2023-04-02T04:48:15;3.90;;;3.60;;
19842;SDS011;10082;51.038;6.992;2023-04-02T04:50:48;4.00;;;3.70;;
19842;SDS011;10082;51.038;6.992;2023-04-02T04:53:28;3.77;;;3.50;;
19842;SDS011;10082;51.038;6.992;2023-04-02T04:55:58;3.53;;;3.33;;
19842;SDS011;10082;51.038;6.992;2023-04-02T04:58:32;3.90;;;3.60;;
19842;SDS011;10082;51.038;6.992;2023-04-02T05:01:09;4.03;;;3.73;;
19842;SDS011;10082;51.038;6.992;2023-04-02T05:03:42;4.30;;;4.00;;
19842;SDS011;10082;51.038;6.992;2023-04-02T05:06:17;3.77;;;3.47;;
19842;SDS011;10082;51.038;6.992;2023-04-02T05:09:01;3.73;;;3.50;;
19842;SDS011;10082;51.038;6.992;2023-04-02T05:11:33;4.97;;;4.57;;
19842;SDS011;10082;51.038;6.992;2023-04-02T05:14:11;4.20;;;3.90;;
19842;SDS011;10082;51.038;6.992;2023-04-02T05:16:47;4.53;;;4.23;;
19842;SDS011;10082;51.038;6.992;2023-04-02T05:19:20;4.67;;;4.27;;
19842;SDS011;10082;51.038;6.992;2023-04-02T05:21:55;4.53;;;4.23;;
19842;SDS011;10082;51.038;6.992;2023-04-02T05:24:34;4.70;;;4.40;;
19842;SDS011;10082;51.038;6.992;2023-04-02T05:27:12;4.77;;;4.47;;
19842;SDS011;10082;51.038;6.992;2023-04-02T05:29:50;4.93;;;4.53;;
19842;SDS011;10082;51.038;6.992;2023-04-02T05:32:25;4.87;;;4.50;;
19842;SDS011;10082;51.038;6.992;2023-04-02T05:34:59;4.57;;;4.27;;
19842;SDS011;10082;51.038;6.992;2023-04-02T05:37:32;4.53;;;4.23;;
19842;SDS011;10082;51.038;6.992;2023-04-02T05:40:09;4.70;;;4.40;;
19842;SDS011;10082;51.038;6.992;2023-04-02T05:42:42;4.80;;;4.40;;
19842;SDS011;10082;51.038;6.992;2023-04-02T05:45:19;4.40;;;4.10;;
19842;SDS011;10082;51.038;6.992;2023-04-02T05:47:56;5.13;;;4.73;;
19842;SDS011;10082;51.038;6.992;2023-04-02T05:50:32;4.97;;;4.60;;
19842;SDS011;10082;51.038;6.992;2023-04-02T05:53:05;4.53;;;4.13;;
19842;SDS011;10082;51.038;6.992;2023-04-02T05:55:52;4.50;;;4.20;;
19842;SDS011;10082;51.038;6.992;2023-04-02T05:58:30;5.10;;;4.70;;
19842;SDS011;10082;51.038;6.992;2023-04-02T06:01:20;4.97;;;4.60;;
19842;SDS011;10082;51.038;6.992;2023-04-02T06:03:59;5.20;;;4.80;;
19842;SDS011;10082;51.038;6.992;2023-04-02T06:06:42;5.03;;;4.63;;
19842;SDS011;10082;51.038;6.992;2023-04-02T06:09:19;5.43;;;5.03;;
19842;SDS011;10082;51.038;6.992;2023-04-02T06:11:56;6.03;;;5.57;;
19842;SDS011;10082;51.038;6.992;2023-04-02T06:14:31;6.13;;;5.63;;
19842;SDS011;10082;51.038;6.992;2023-04-02T06:16:59;6.07;;;5.57;;
19842;SDS011;10082;51.038;6.992;2023-04-02T06:19:30;6.37;;;5.83;;
19842;SDS011;10082;51.038;6.992;2023-04-02T06:22:07;6.63;;;6.03;;
19842;SDS011;10082;51.038;6.992;2023-04-02T06:24:41;6.57;;;5.97;;
19842;SDS011;10082;51.038;6.992;2023-04-02T06:27:13;6.77;;;6.17;;
19842;SDS011;10082;51.038;6.992;2023-04-02T06:29:47;7.17;;;6.50;;
19842;SDS011;10082;51.038;6.992;2023-04-02T06:32:21;7.07;;;6.37;;
19842;SDS011;10082;51.038;6.992;2023-04-02T06:34:51;7.23;;;6.63;;
19842;SDS011;10082;51.038;6.992;2023-04-02T06:37:29;8.30;;;7.03;;
19842;SDS011;10082;51.038;6.992;2023-04-02T06:40:32;7.27;;;6.57;;
19842;SDS011;10082;51.038;6.992;2023-04-02T06:43:25;8.27;;;6.40;;
19842;SDS011;10082;51.038;6.992;2023-04-02T06:46:21;7.57;;;6.87;;
19842;SDS011;10082;51.038;6.992;2023-04-02T06:49:02;6.80;;;6.20;;
19842;SDS011;10082;51.038;6.992;2023-04-02T06:51:47;7.07;;;6.43;;
19842;SDS011;10082;51.038;6.992;2023-04-02T06:54:17;7.30;;;6.50;;
19842;SDS011;10082;51.038;6.992;2023-04-02T06:56:50;7.23;;;6.53;;
19842;SDS011;10082;51.038;6.992;2023-04-02T06:59:34;7.00;;;6.30;;
19842;SDS011;10082;51.038;6.992;2023-04-02T07:02:15;7.10;;;6.50;;
19842;SDS011;10082;51.038;6.992;2023-04-02T07:04:51;7.03;;;6.43;;
19842;SDS011;10082;51.038;6.992;2023-04-02T07:07:22;7.03;;;6.33;;
19842;SDS011;10082;51.038;6.992;2023-04-02T07:09:50;6.73;;;6.13;;
19842;SDS011;10082;51.038;6.992;2023-04-02T07:12:18;7.07;;;6.37;;
19842;SDS011;10082;51.038;6.992;2023-04-02T07:14:51;7.20;;;6.50;;
19842;SDS011;10082;51.038;6.992;2023-04-02T07:17:19;7.23;;;6.57;;
19842;SDS011;10082;51.038;6.992;2023-04-02T07:19:50;6.23;;;5.63;;
19842;SDS011;10082;51.038;6.992;2023-04-02T07:22:21;6.40;;;5.77;;
19842;SDS011;10082;51.038;6.992;2023-04-02T07:24:54;6.67;;;6.00;;
19842;SDS011;10082;51.038;6.992;2023-04-02T07:27:21;6.97;;;6.37;;
19842;SDS011;10082;51.038;6.992;2023-04-02T07:29:48;6.90;;;6.20;;
19842;SDS011;10082;51.038;6.992;2023-04-02T07:32:17;7.40;;;6.10;;
19842;SDS011;10082;51.038;6.992;2023-04-02T07:34:45;6.90;;;6.30;;
19842;SDS011;10082;51.038;6.992;2023-04-02T07:37:14;8.23;;;6.10;;
19842;SDS011;10082;51.038;6.992;2023-04-02T07:39:41;6.10;;;5.60;;
19842;SDS011;10082;51.038;6.992;2023-04-02T07:42:09;7.00;;;6.07;;
19842;SDS011;10082;51.038;6.992;2023-04-02T07:44:36;6.83;;;6.10;;
19842;SDS011;10082;51.038;6.992;2023-04-02T07:47:04;6.43;;;5.73;;
19842;SDS011;10082;51.038;6.992;2023-04-02T07:49:34;7.07;;;6.37;;
19842;SDS011;10082;51.038;6.992;2023-04-02T07:52:03;6.93;;;6.23;;
19842;SDS011;10082;51.038;6.992;2023-04-02T07:54:31;8.03;;;6.30;;
19842;SDS011;10082;51.038;6.992;2023-04-02T07:57:00;6.20;;;5.60;;
19842;SDS011;10082;51.038;6.992;2023-04-02T07:59:27;7.47;;;6.00;;
19842;SDS011;10082;51.038;6.992;2023-04-02T08:01:55;6.70;;;6.03;;
19842;SDS011;10082;51.038;6.992;2023-04-02T08:04:24;6.67;;;6.00;;
19842;SDS011;10082;51.038;6.992;2023-04-02T08:06:53;7.00;;;6.30;;
19842;SDS011;10082;51.038;6.992;2023-04-02T08:09:21;7.43;;;6.60;;
19842;SDS011;10082;51.038;6.992;2023-04-02T08:11:48;6.87;;;6.27;;
19842;SDS011;10082;51.038;6.992;2023-04-02T08:14:16;7.13;;;6.40;;
19842;SDS011;10082;51.038;6.992;2023-04-02T08:16:47;6.63;;;6.03;;
19842;SDS011;10082;51.038;6.992;2023-04-02T08:19:23;7.57;;;6.83;;
19842;SDS011;10082;51.038;6.992;2023-04-02T08:21:54;6.93;;;6.30;;
19842;SDS011;10082;51.038;6.992;2023-04-02T08:24:22;8.47;;;7.03;;
19842;SDS011;10082;51.038;6.992;2023-04-02T08:26:51;6.70;;;6.10;;
19842;SDS011;10082;51.038;6.992;2023-04-02T08:29:25;6.87;;;6.17;;
19842;SDS011;10082;51.038;6.992;2023-04-02T08:31:56;7.97;;;6.50;;
19842;SDS011;10082;51.038;6.992;2023-04-02T08:34:28;6.65;;;6.05;;
19842;SDS011;10082;51.038;6.992;2023-04-02T08:37:01;6.70;;;6.03;;
19842;SDS011;10082;51.038;6.992;2023-04-02T08:39:28;7.72;;;6.05;;
19842;SDS011;10082;51.038;6.992;2023-04-02T08:41:59;6.60;;;5.93;;
19842;SDS011;10082;51.038;6.992;2023-04-02T08:44:37;6.53;;;5.45;;
19842;SDS011;10082;51.038;6.992;2023-04-02T08:47:11;6.13;;;5.53;;
19842;SDS011;10082;51.038;6.992;2023-04-02T08:49:43;6.17;;;5.57;;
19842;SDS011;10082;51.038;6.992;2023-04-02T08:52:19;6.03;;;5.40;;
19842;SDS011;10082;51.038;6.992;2023-04-02T08:54:50;5.80;;;5.23;;
19842;SDS011;10082;51.038;6.992;2023-04-02T08:57:24;5.90;;;5.30;;
19842;SDS011;10082;51.038;6.992;2023-04-02T09:00:03;6.37;;;5.77;;
19842;SDS011;10082;51.038;6.992;2023-04-02T09:02:36;6.73;;;5.23;;
19842;SDS011;10082;51.038;6.992;2023-04-02T09:05:15;5.90;;;5.17;;
19842;SDS011;10082;51.038;6.992;2023-04-02T09:07:48;6.50;;;5.17;;
19842;SDS011;10082;51.038;6.992;2023-04-02T09:10:18;6.03;;;5.03;;
19842;SDS011;10082;51.038;6.992;2023-04-02T09:12:51;6.23;;;5.10;;
19842;SDS011;10082;51.038;6.992;2023-04-02T09:15:25;6.10;;;5.33;;
19842;SDS011;10082;51.038;6.992;2023-04-02T09:17:58;5.00;;;4.50;;
19842;SDS011;10082;51.038;6.992;2023-04-02T09:20:30;5.25;;;4.75;;
19842;SDS011;10082;51.038;6.992;2023-04-02T09:22:59;6.53;;;4.97;;
19842;SDS011;10082;51.038;6.992;2023-04-02T09:25:30;5.27;;;4.70;;
19842;SDS011;10082;51.038;6.992;2023-04-02T09:27:59;6.90;;;4.80;;
19842;SDS011;10082;51.038;6.992;2023-04-02T09:30:33;5.97;;;5.43;;
19842;SDS011;10082;51.038;6.992;2023-04-02T09:33:13;5.70;;;5.20;;
19842;SDS011;10082;51.038;6.992;2023-04-02T09:35:52;5.97;;;5.23;;
19842;SDS011;10082;51.038;6.992;2023-04-02T09:38:25;5.43;;;4.93;;
19842;SDS011;10082;51.038;6.992;2023-04-02T09:40:57;5.80;;;5.30;;
19842;SDS011;10082;51.038;6.992;2023-04-02T09:43:27;5.87;;;5.27;;
19842;SDS011;10082;51.038;6.992;2023-04-02T09:45:57;6.03;;;5.50;;
19842;SDS011;10082;51.038;6.992;2023-04-02T09:48:28;6.28;;;5.47;;
19842;SDS011;10082;51.038;6.992;2023-04-02T09:51:05;5.72;;;5.20;;
19842;SDS011;10082;51.038;6.992;2023-04-02T09:53:41;5.43;;;4.93;;
19842;SDS011;10082;51.038;6.992;2023-04-02T09:56:14;5.80;;;5.20;;
19842;SDS011;10082;51.038;6.992;2023-04-02T09:58:44;5.53;;;5.03;;
19842;SDS011;10082;51.038;6.992;2023-04-02T10:01:28;5.67;;;5.10;;
19842;SDS011;10082;51.038;6.992;2023-04-02T10:03:57;5.10;;;4.70;;
19842;SDS011;10082;51.038;6.992;2023-04-02T10:06:26;5.80;;;5.30;;
19842;SDS011;10082;51.038;6.992;2023-04-02T10:09:01;5.50;;;5.10;;
19842;SDS011;10082;51.038;6.992;2023-04-02T10:11:46;6.32;;;4.75;;
19842;SDS011;10082;51.038;6.992;2023-04-02T10:14:23;5.68;;;5.18;;
19842;SDS011;10082;51.038;6.992;2023-04-02T10:16:55;5.13;;;4.72;;
19842;SDS011;10082;51.038;6.992;2023-04-02T10:19:27;5.60;;;5.10;;
19842;SDS011;10082;51.038;6.992;2023-04-02T10:21:59;5.43;;;4.93;;
19842;SDS011;10082;51.038;6.992;2023-04-02T10:24:33;5.25;;;4.50;;
19842;SDS011;10082;51.038;6.992;2023-04-02T10:27:04;5.28;;;4.78;;
19842;SDS011;10082;51.038;6.992;2023-04-02T10:29:50;4.88;;;4.40;;
19842;SDS011;10082;51.038;6.992;2023-04-02T10:32:29;5.07;;;4.47;;
19842;SDS011;10082;51.038;6.992;2023-04-02T10:35:02;5.00;;;4.50;;
19842;SDS011;10082;51.038;6.992;2023-04-02T10:40:33;5.22;;;4.72;;
19842;SDS011;10082;51.038;6.992;2023-04-02T10:43:09;4.97;;;4.57;;
19842;SDS011;10082;51.038;6.992;2023-04-02T10:46:00;5.35;;;4.85;;
19842;SDS011;10082;51.038;6.992;2023-04-02T10:48:34;5.47;;;4.97;;
19842;SDS011;10082;51.038;6.992;2023-04-02T10:51:11;6.22;;;4.90;;
19842;SDS011;10082;51.038;6.992;2023-04-02T10:53:51;7.35;;;5.10;;
19842;SDS011;10082;51.038;6.992;2023-04-02T10:56:26;5.47;;;4.53;;
19842;SDS011;10082;51.038;6.992;2023-04-02T10:58:58;5.70;;;5.03;;
19842;SDS011;10082;51.038;6.992;2023-04-02T11:01:31;7.20;;;5.03;;
19842;SDS011;10082;51.038;6.992;2023-04-02T11:04:02;5.53;;;5.00;;
19842;SDS011;10082;51.038;6.992;2023-04-02T11:06:36;5.65;;;4.60;;
19842;SDS011;10082;51.038;6.992;2023-04-02T11:09:09;4.95;;;4.40;;
19842;SDS011;10082;51.038;6.992;2023-04-02T11:11:45;4.75;;;4.13;;
19842;SDS011;10082;51.038;6.992;2023-04-02T11:14:17;4.60;;;4.20;;
19842;SDS011;10082;51.038;6.992;2023-04-02T11:16:48;4.90;;;4.50;;
19842;SDS011;10082;51.038;6.992;2023-04-02T11:19:22;4.93;;;4.47;;
19842;SDS011;10082;51.038;6.992;2023-04-02T11:21:52;5.25;;;4.75;;
19842;SDS011;10082;51.038;6.992;2023-04-02T11:27:16;5.10;;;4.60;;
19842;SDS011;10082;51.038;6.992;2023-04-02T11:29:48;4.75;;;4.35;;
19842;SDS011;10082;51.038;6.992;2023-04-02T11:32:28;4.53;;;4.13;;
19842;SDS011;10082;51.038;6.992;2023-04-02T11:44:23;4.78;;;4.38;;
19842;SDS011;10082;51.038;6.992;2023-04-02T11:46:51;6.07;;;4.57;;
19842;SDS011;10082;51.038;6.992;2023-04-02T11:52:28;5.30;;;4.78;;
19842;SDS011;10082;51.038;6.992;2023-04-02T11:55:01;5.00;;;4.60;;
19842;SDS011;10082;51.038;6.992;2023-04-02T11:57:42;5.40;;;4.90;;
19842;SDS011;10082;51.038;6.992;2023-04-02T12:03:54;5.47;;;4.97;;
19842;SDS011;10082;51.038;6.992;2023-04-02T12:06:33;5.20;;;4.78;;
19842;SDS011;10082;51.038;6.992;2023-04-02T12:09:16;4.97;;;4.57;;
19842;SDS011;10082;51.038;6.992;2023-04-02T12:11:48;5.25;;;4.78;;
19842;SDS011;10082;51.038;6.992;2023-04-02T12:14:31;4.88;;;4.38;;
19842;SDS011;10082;51.038;6.992;2023-04-02T12:17:14;5.13;;;4.63;;
19842;SDS011;10082;51.038;6.992;2023-04-02T12:19:50;4.88;;;4.38;;
19842;SDS011;10082;51.038;6.992;2023-04-02T12:22:29;5.60;;;4.70;;
19842;SDS011;10082;51.038;6.992;2023-04-02T12:25:02;4.50;;;4.10;;
19842;SDS011;10082;51.038;6.992;2023-04-02T12:27:31;5.00;;;4.50;;
19842;SDS011;10082;51.038;6.992;2023-04-02T12:30:12;5.90;;;4.63;;
19842;SDS011;10082;51.038;6.992;2023-04-02T12:32:44;4.90;;;4.22;;
19842;SDS011;10082;51.038;6.992;2023-04-02T12:35:24;5.18;;;4.68;;
19842;SDS011;10082;51.038;6.992;2023-04-02T12:37:55;4.57;;;4.18;;
19842;SDS011;10082;51.038;6.992;2023-04-02T12:40:23;5.20;;;4.70;;
19842;SDS011;10082;51.038;6.992;2023-04-02T12:42:51;5.13;;;4.22;;
19842;SDS011;10082;51.038;6.992;2023-04-02T12:45:25;4.50;;;3.97;;
19842;SDS011;10082;51.038;6.992;2023-04-02T12:47:57;4.65;;;4.20;;
19842;SDS011;10082;51.038;6.992;2023-04-02T12:50:29;4.45;;;4.03;;
19842;SDS011;10082;51.038;6.992;2023-04-02T12:52:59;4.20;;;3.80;;
19842;SDS011;10082;51.038;6.992;2023-04-02T12:55:27;4.68;;;3.97;;
19842;SDS011;10082;51.038;6.992;2023-04-02T12:57:56;4.82;;;4.25;;
19842;SDS011;10082;51.038;6.992;2023-04-02T13:00:28;5.03;;;4.10;;
19842;SDS011;10082;51.038;6.992;2023-04-02T13:03:01;5.28;;;4.10;;
19842;SDS011;10082;51.038;6.992;2023-04-02T13:05:45;4.70;;;3.95;;
19842;SDS011;10082;51.038;6.992;2023-04-02T13:08:17;4.88;;;4.05;;
19842;SDS011;10082;51.038;6.992;2023-04-02T13:10:55;4.10;;;3.80;;
19842;SDS011;10082;51.038;6.992;2023-04-02T13:13:26;4.15;;;3.75;;
19842;SDS011;10082;51.038;6.992;2023-04-02T13:16:00;3.63;;;3.33;;
19842;SDS011;10082;51.038;6.992;2023-04-02T13:18:29;4.00;;;3.60;;
19842;SDS011;10082;51.038;6.992;2023-04-02T13:23:52;4.05;;;3.55;;
19842;SDS011;10082;51.038;6.992;2023-04-02T13:26:23;3.65;;;3.35;;
19842;SDS011;10082;51.038;6.992;2023-04-02T13:28:56;4.03;;;3.63;;
19842;SDS011;10082;51.038;6.992;2023-04-02T13:31:26;3.65;;;3.35;;
19842;SDS011;10082;51.038;6.992;2023-04-02T13:33:55;4.68;;;3.20;;
19842;SDS011;10082;51.038;6.992;2023-04-02T13:36:28;3.40;;;3.10;;
19842;SDS011;10082;51.038;6.992;2023-04-02T13:38:56;3.47;;;3.17;;
19842;SDS011;10082;51.038;6.992;2023-04-02T13:41:26;3.35;;;2.90;;
19842;SDS011;10082;51.038;6.992;2023-04-02T13:43:56;3.65;;;3.30;;
19842;SDS011;10082;51.038;6.992;2023-04-02T13:46:28;2.80;;;2.50;;
19842;SDS011;10082;51.038;6.992;2023-04-02T13:48:58;3.58;;;3.25;;
19842;SDS011;10082;51.038;6.992;2023-04-02T13:51:30;3.22;;;2.92;;
19842;SDS011;10082;51.038;6.992;2023-04-02T13:54:06;3.20;;;2.90;;
19842;SDS011;10082;51.038;6.992;2023-04-02T13:56:38;2.83;;;2.63;;
19842;SDS011;10082;51.038;6.992;2023-04-02T13:59:06;2.63;;;2.42;;
19842;SDS011;10082;51.038;6.992;2023-04-02T14:01:35;3.40;;;2.60;;
19842;SDS011;10082;51.038;6.992;2023-04-02T14:04:03;2.60;;;2.40;;
19842;SDS011;10082;51.038;6.992;2023-04-02T14:06:39;2.92;;;2.63;;
19842;SDS011;10082;51.038;6.992;2023-04-02T14:09:30;3.13;;;2.45;;
19842;SDS011;10082;51.038;6.992;2023-04-02T14:12:07;2.85;;;2.13;;
19842;SDS011;10082;51.038;6.992;2023-04-02T14:14:47;2.45;;;2.28;;
19842;SDS011;10082;51.038;6.992;2023-04-02T14:17:30;2.50;;;2.30;;
19842;SDS011;10082;51.038;6.992;2023-04-02T14:23:07;3.00;;;2.70;;
19842;SDS011;10082;51.038;6.992;2023-04-02T14:25:51;3.00;;;2.70;;
19842;SDS011;10082;51.038;6.992;2023-04-02T14:28:27;3.28;;;2.53;;
19842;SDS011;10082;51.038;6.992;2023-04-02T14:31:08;4.22;;;2.60;;
19842;SDS011;10082;51.038;6.992;2023-04-02T14:33:42;2.80;;;2.60;;
19842;SDS011;10082;51.038;6.992;2023-04-02T14:36:18;2.53;;;2.33;;
19842;SDS011;10082;51.038;6.992;2023-04-02T14:39:02;3.35;;;2.80;;
19842;SDS011;10082;51.038;6.992;2023-04-02T14:41:35;2.75;;;2.55;;
19842;SDS011;10082;51.038;6.992;2023-04-02T14:44:08;3.83;;;2.70;;
19842;SDS011;10082;51.038;6.992;2023-04-02T14:46:38;3.17;;;2.80;;
19842;SDS011;10082;51.038;6.992;2023-04-02T14:49:11;3.25;;;2.95;;
19842;SDS011;10082;51.038;6.992;2023-04-02T14:51:48;4.00;;;2.80;;
19842;SDS011;10082;51.038;6.992;2023-04-02T14:54:24;3.63;;;3.33;;
19842;SDS011;10082;51.038;6.992;2023-04-02T14:57:04;3.33;;;3.03;;
19842;SDS011;10082;51.038;6.992;2023-04-02T14:59:41;3.10;;;2.80;;
19842;SDS011;10082;51.038;6.992;2023-04-02T15:02:20;3.60;;;3.30;;
19842;SDS011;10082;51.038;6.992;2023-04-02T15:04:56;3.50;;;3.20;;
19842;SDS011;10082;51.038;6.992;2023-04-02T15:07:27;3.85;;;3.50;;
19842;SDS011;10082;51.038;6.992;2023-04-02T15:10:06;3.22;;;2.92;;
19842;SDS011;10082;51.038;6.992;2023-04-02T15:12:43;3.42;;;3.13;;
19842;SDS011;10082;51.038;6.992;2023-04-02T15:15:17;3.58;;;3.28;;
19842;SDS011;10082;51.038;6.992;2023-04-02T15:17:56;3.50;;;3.20;;
19842;SDS011;10082;51.038;6.992;2023-04-02T15:20:23;3.35;;;3.05;;
19842;SDS011;10082;51.038;6.992;2023-04-02T15:22:54;2.90;;;2.70;;
19842;SDS011;10082;51.038;6.992;2023-04-02T15:25:32;4.28;;;2.88;;
19842;SDS011;10082;51.038;6.992;2023-04-02T15:28:08;3.72;;;3.40;;
19842;SDS011;10082;51.038;6.992;2023-04-02T15:30:43;3.00;;;2.70;;
19842;SDS011;10082;51.038;6.992;2023-04-02T15:39:20;3.95;;;2.70;;
19842;SDS011;10082;51.038;6.992;2023-04-02T15:42:12;2.90;;;2.70;;
19842;SDS011;10082;51.038;6.992;2023-04-02T15:44:43;5.55;;;3.00;;
19842;SDS011;10082;51.038;6.992;2023-04-02T15:47:35;3.28;;;3.05;;
19842;SDS011;10082;51.038;6.992;2023-04-02T15:50:15;3.10;;;2.90;;
19842;SDS011;10082;51.038;6.992;2023-04-02T15:53:00;3.20;;;2.90;;
19842;SDS011;10082;51.038;6.992;2023-04-02T15:55:37;3.65;;;3.10;;
19842;SDS011;10082;51.038;6.992;2023-04-02T15:58:20;3.28;;;2.97;;
19842;SDS011;10082;51.038;6.992;2023-04-02T16:00:55;3.10;;;2.78;;
19842;SDS011;10082;51.038;6.992;2023-04-02T16:03:40;2.90;;;2.60;;
19842;SDS011;10082;51.038;6.992;2023-04-02T16:06:24;3.55;;;3.20;;
19842;SDS011;10082;51.038;6.992;2023-04-02T16:09:00;3.25;;;2.95;;
19842;SDS011;10082;51.038;6.992;2023-04-02T16:11:40;2.85;;;2.65;;
19842;SDS011;10082;51.038;6.992;2023-04-02T16:14:18;3.58;;;3.28;;
19842;SDS011;10082;51.038;6.992;2023-04-02T16:16:51;3.03;;;2.83;;
19842;SDS011;10082;51.038;6.992;2023-04-02T16:19:24;3.35;;;3.03;;